עמוד ראשי
METAR-TAF:

שדות תעופה :

שטוטגרט, גרמניה

קו רוחב: 48-41N, קו אורך: 009-13E, גובה: 396מטר

תצפית מזג אוויר נוכחית

הדו"ח נערך לפני 11דקות, בשעה 00:50 UTC
רוח 2קשר עם כיוונים משתנים
טמפרטורת 5 צלסיוס
לחות 65%
לחץ 1025 hPa
ראות 10 קילומטר או יותר
ללא עננים שבסיסם נמוך מ 5000 רגל או קומולונימבוס

METAR: EDDS 050050Z VRB02KT CAVOK 05/M01 Q1025

זמן: 03:01 (01:01 UTC)

תחזית

הדו"ח נערך לפני 2 שעות ו 1דקות, בשעה 23:00 UTC
תחזית בתוקף מ 05 ב 00 UTC עד 05 ב 24 UTC
רוח 4קשר מכיוון צפון-מזרח
ראות 10 קילומטר או יותר
ללא עננים שבסיסם נמוך מ 5000 רגל או קומולונימבוס
יעשה מ
05 ב 06 UTC עד 05 ב 09 UTC
רוח 11קשר מכיוון מזרח
הסתברות 30% :
זמנית מ -
05 ב 10 UTC עד 05 ב 16 UTC
רוח 15קשר מכיוון מזרח עם משבים עד 25קשר
יעשה מ
05 ב 17 UTC עד 05 ב 20 UTC
רוח 4קשר מכיוון מזרח

TAF: EDDS 042300Z 0500/0524 04004KT CAVOK BECMG 0506/0509 10011KT PROB30 TEMPO 0510/0516 10015G25KT BECMG 0517/0520 08004KT

METAR-TAF

תצפיות ותחזיות מזג אוויר לגבי יותר מ- 4,000 שדות תעופה ברחבי העולם. דוחות METAR ו- TAF.

התחנות הזמינות מסומנות בנקודות צהובות ואדומות על גבי המפה.

העבר את העכבר לנקודה הצבעונית על מנת לראות את שם התחנה.

לאחר מכן, לחץ כדי לראות את תוכן ואת תחזיות מזג האוויר.

כדי לשנות את המפה: לחץ על הכפתורים הירוקים עם הפלוס השחור כדי להתקרב; על הכפתור הירוק עם המקף כדי להתרחק; או בחיצים הירוקים למפות סמוכות.


METAR-TAF: